Lake Charles — WDF4884 — position and weather

sailwx.info

Track history (hours):
 
Tides and Currents Weather Stations Pressure Air Temp Water Temp Dewpoint Dewpoint Depression Visibility Wind Speed Wind Dir Waves Ship Positions

Lake Charles

Owner: Canal Barge Company, Inc., Belle Chasse, LA. More information available from US FCC via Universal Licensing System and Coast Guard Vessel Documentation Center.

Last reported at 2018-Jun-25 17:30 UTC. Time now 2018-Jun-25 17:50 UTC.
Position N 29°47' W 092°13'.

Length 23 m; draft 3 m.

Type: Tow > 200 m length. MMSI: 367456860.

Date/timePositionNaut miles runAvg speedWind from/ knotsBaromVisibWave heightAir tempDewpointWater temp
2018-Jun-25 17:30N 29°47' W 092°13'0 0.9
2018-Jun-25 17:00N 29°47' W 092°12'1 1.3
2018-Jun-25 16:30N 29°47' W 092°12'0 0.1
2018-Jun-25 16:00N 29°47' W 092°12'0 0.0
2018-Jun-25 15:30N 29°47' W 092°12'0 0.0
2018-Jun-25 15:00N 29°47' W 092°12'0 0.0
2018-Jun-25 14:30N 29°47' W 092°12'0 0.0
2018-Jun-25 14:00N 29°47' W 092°12'0 0.0
2018-Jun-25 13:30N 29°47' W 092°12'0 0.0
2018-Jun-25 13:00N 29°47' W 092°12'0 0.0
2018-Jun-25 12:30N 29°47' W 092°12'0 0.0
2018-Jun-25 12:00N 29°47' W 092°12'0 0.0
2018-Jun-25 11:30N 29°47' W 092°12'0 0.0
2018-Jun-25 11:00N 29°47' W 092°12'0 0.1
2018-Jun-25 10:29N 29°47' W 092°12'0 0.1
2018-Jun-25 10:01N 29°47' W 092°12'0 0.0
2018-Jun-25 09:29N 29°47' W 092°12'0 0.0
2018-Jun-25 09:00N 29°47' W 092°12'0 0.0
2018-Jun-25 08:30N 29°47' W 092°12'0 0.0
2018-Jun-25 08:00N 29°47' W 092°12'0 0.0
2018-Jun-25 07:30N 29°47' W 092°12'0 0.0
2018-Jun-25 06:59N 29°47' W 092°12'1 1.4
2018-Jun-25 06:30N 29°47' W 092°11'2 3.4
2018-Jun-25 06:00N 29°47' W 092°09'2 3.9
2018-Jun-25 05:30N 29°48' W 092°07'2 3.6
2018-Jun-25 05:00N 29°48' W 092°05'2 3.7
2018-Jun-25 04:31N 29°49' W 092°03'2 4.2
2018-Jun-25 04:00N 29°50' W 092°00'2 4.2
2018-Jun-25 03:30N 29°50' W 091°58'  
2018-Jun-21 16:09N 29°51' W 091°55'1 4.1
2018-Jun-21 16:00N 29°51' W 091°55'2 4.0
2018-Jun-21 15:30N 29°50' W 091°58'2 3.9
2018-Jun-21 15:00N 29°50' W 091°60'2 4.0
2018-Jun-21 14:30N 29°49' W 092°02'2 3.6
2018-Jun-21 14:01N 29°49' W 092°04'2 3.4
2018-Jun-21 13:30N 29°48' W 092°06'2 3.3
2018-Jun-21 13:00N 29°47' W 092°07'2 3.5
2018-Jun-21 12:30N 29°47' W 092°09'2 3.3
2018-Jun-21 12:00N 29°47' W 092°11'1 2.1
2018-Jun-21 11:30N 29°47' W 092°12'1 1.3
2018-Jun-21 11:00N 29°47' W 092°13'1 1.6
2018-Jun-21 10:30N 29°48' W 092°14'0 0.2
2018-Jun-21 10:00N 29°48' W 092°14'0 0.9
2018-Jun-21 09:30N 29°48' W 092°14'1 1.3
2018-Jun-21 09:01N 29°48' W 092°15'0 0.2
2018-Jun-21 08:30N 29°48' W 092°15'0 0.6
2018-Jun-21 08:00N 29°48' W 092°16'0 0.3
2018-Jun-21 07:30N 29°48' W 092°16'0 0.1
2018-Jun-21 07:00N 29°48' W 092°16'0 0.1
2018-Jun-21 06:30N 29°48' W 092°16'0 0.0
2018-Jun-21 06:00N 29°48' W 092°16'0 0.0
2018-Jun-21 05:30N 29°48' W 092°16'0 0.2
2018-Jun-21 05:00N 29°49' W 092°16'0 0.3
2018-Jun-21 04:30N 29°49' W 092°16'0 0.0
2018-Jun-21 04:00N 29°49' W 092°16'0 0.0
2018-Jun-21 03:30N 29°49' W 092°16'1 2.0
2018-Jun-21 03:00N 29°49' W 092°17'2 3.4
2018-Jun-21 02:30N 29°50' W 092°18'2 3.5
2018-Jun-21 02:00N 29°51' W 092°20'36 3.3
2018-Jun-20 15:10N 29°56' W 093°02'0 0.4
2018-Jun-20 14:42N 29°56' W 093°02'0 0.0
2018-Jun-20 14:24N 29°56' W 093°02'0 0.0
2018-Jun-20 13:51N 29°56' W 093°02'0 0.0
2018-Jun-20 13:18N 29°56' W 093°02'30 3.0
2018-Jun-20 03:18N 29°54' W 092°28'1 3.9
2018-Jun-20 03:00N 29°53' W 092°26'2 3.9
2018-Jun-20 02:30N 29°53' W 092°24'3 3.5
2018-Jun-20 01:38N 29°51' W 092°22'0 3.3
2018-Jun-20 01:30N 29°51' W 092°21'2 3.7
2018-Jun-20 01:00N 29°50' W 092°19'2 3.2
2018-Jun-20 00:30N 29°50' W 092°18'2 3.3
2018-Jun-20 00:00N 29°49' W 092°16'2 3.3
2018-Jun-19 23:30N 29°48' W 092°14'2 3.4
2018-Jun-19 23:00N 29°47' W 092°13'0 0.9
2018-Jun-19 22:30N 29°47' W 092°12'1 1.1
2018-Jun-19 22:00N 29°47' W 092°12'0 0.0
2018-Jun-19 21:30N 29°47' W 092°12'0 0.0
2018-Jun-19 21:01N 29°47' W 092°12'0 0.0
2018-Jun-19 20:30N 29°47' W 092°12'0 0.0
2018-Jun-19 20:00N 29°47' W 092°12'0 0.1
2018-Jun-19 19:30N 29°47' W 092°11'0 0.3
2018-Jun-19 18:59N 29°47' W 092°11'0 0.1
2018-Jun-19 18:30N 29°47' W 092°11'0 0.1
2018-Jun-19 18:00N 29°47' W 092°11'0 0.2
2018-Jun-19 17:30N 29°47' W 092°11'0 0.1
2018-Jun-19 17:00N 29°47' W 092°11'0 0.1
2018-Jun-19 16:30N 29°47' W 092°11'0 0.0
2018-Jun-19 16:00N 29°47' W 092°11'0 0.0
2018-Jun-19 15:31N 29°47' W 092°11'0 0.2
2018-Jun-19 15:00N 29°47' W 092°11'2 3.1
2018-Jun-19 14:30N 29°47' W 092°09'1 2.6
2018-Jun-19 14:00N 29°47' W 092°08'0 0.0
2018-Jun-19 13:30N 29°47' W 092°08'0 0.0
2018-Jun-19 13:00N 29°47' W 092°08'0 0.0
2018-Jun-19 12:30N 29°47' W 092°08'0 0.0
2018-Jun-19 12:00N 29°47' W 092°08'0 0.0
2018-Jun-19 11:30N 29°47' W 092°08'0 0.0
2018-Jun-19 11:00N 29°47' W 092°08'0 0.1
2018-Jun-19 10:30N 29°47' W 092°08'1 1.3
2018-Jun-19 10:00N 29°47' W 092°07'2 3.1
2018-Jun-19 09:30N 29°48' W 092°05'2 3.7
2018-Jun-19 09:01N 29°49' W 092°03'2 3.8
2018-Jun-19 08:30N 29°49' W 092°01'2 3.6
2018-Jun-19 08:00N 29°50' W 091°59'2 3.9
2018-Jun-19 07:30N 29°50' W 091°57'7 3.3
2018-Jun-19 05:30N 29°49' W 091°50'4 0.2
2018-Jun-18 04:46N 29°51' W 091°54'1 4.8
2018-Jun-18 04:30N 29°51' W 091°56'2 4.9
2018-Jun-18 04:00N 29°50' W 091°59'3 5.0
2018-Jun-18 03:30N 29°49' W 092°01'2 4.5
2018-Jun-18 03:00N 29°48' W 092°04'2 4.8
2018-Jun-18 02:30N 29°48' W 092°06'2 4.8
2018-Jun-18 02:00N 29°47' W 092°09'2 3.4
2018-Jun-18 01:30N 29°47' W 092°11'1 2.9
2018-Jun-18 01:01N 29°47' W 092°12'1 1.5
2018-Jun-18 00:30N 29°48' W 092°13'0 0.9
2018-Jun-18 00:00N 29°48' W 092°14'0 0.0
2018-Jun-17 23:30N 29°48' W 092°14'0 0.0
2018-Jun-17 22:59N 29°48' W 092°14'0 0.1
2018-Jun-17 22:30N 29°48' W 092°14'1 2.2
2018-Jun-17 22:00N 29°48' W 092°15'0 0.6
2018-Jun-17 21:30N 29°48' W 092°15'1 1.0
2018-Jun-17 21:00N 29°48' W 092°16'0 0.1
2018-Jun-17 20:30N 29°48' W 092°16'0 0.0
2018-Jun-17 20:00N 29°48' W 092°16'0 0.0
2018-Jun-17 19:30N 29°48' W 092°16'0 0.5
2018-Jun-17 19:00N 29°49' W 092°16'0 0.6
2018-Jun-17 18:30N 29°49' W 092°16'0 0.2
2018-Jun-17 18:00N 29°49' W 092°17'1 2.7
2018-Jun-17 17:31N 29°50' W 092°18'2 3.5
2018-Jun-17 17:00N 29°50' W 092°19'2 3.6
2018-Jun-17 16:30N 29°51' W 092°22'2 3.5
2018-Jun-17 15:58N 29°52' W 092°23'32 3.7
2018-Jun-17 07:14N 29°56' W 092°60'1 3.7
2018-Jun-17 06:51N 29°56' W 093°01'1 3.7
2018-Jun-17 06:30N 29°56' W 093°03'1 2.8
2018-Jun-17 06:00N 29°56' W 093°04'2 3.4
2018-Jun-17 05:30N 29°56' W 093°06'1 1.9
2018-Jun-17 05:00N 29°56' W 093°07'2 3.5
2018-Jun-17 04:31N 29°56' W 093°09'2 3.5
2018-Jun-17 04:00N 29°57' W 093°11'2 3.2
2018-Jun-17 03:30N 29°59' W 093°12'1 2.9
2018-Jun-17 03:00N 29°60' W 093°13'2 3.4
2018-Jun-17 02:30N 30°01' W 093°14'1 2.9
2018-Jun-17 02:00N 30°02' W 093°15'2 3.2
2018-Jun-17 01:30N 30°04' W 093°16'2 3.2
2018-Jun-17 01:00N 30°05' W 093°17'1 1.5
2018-Jun-17 00:31N 30°05' W 093°18'1 2.1
2018-Jun-17 00:01N 30°06' W 093°19'0 0.4
2018-Jun-16 23:30N 30°06' W 093°19'0 0.1
2018-Jun-16 23:00N 30°06' W 093°19'0 0.1
2018-Jun-16 22:31N 30°06' W 093°19'0 0.0
2018-Jun-16 21:58N 30°06' W 093°19'0 0.0
2018-Jun-16 21:30N 30°06' W 093°19'0 0.0
2018-Jun-16 21:00N 30°06' W 093°19'0 0.0
2018-Jun-16 20:30N 30°06' W 093°19'0 0.0
2018-Jun-16 19:59N 30°06' W 093°19'0 0.0
2018-Jun-16 19:31N 30°06' W 093°19'0 0.0
2018-Jun-16 19:00N 30°06' W 093°19'0 0.0
2018-Jun-16 18:30N 30°06' W 093°19'0 0.0
2018-Jun-16 18:00N 30°06' W 093°19'0 0.0
2018-Jun-16 17:28N 30°06' W 093°19'0 0.0
2018-Jun-16 17:01N 30°06' W 093°19'0 0.1
2018-Jun-16 16:31N 30°06' W 093°19'0 0.1
2018-Jun-16 16:00N 30°06' W 093°19'0 0.1
2018-Jun-16 15:28N 30°06' W 093°19'0 0.0
2018-Jun-16 15:00N 30°06' W 093°19'0 0.1
2018-Jun-16 14:30N 30°06' W 093°19'0 0.0
2018-Jun-16 13:59N 30°06' W 093°19'0 0.1
2018-Jun-16 13:30N 30°06' W 093°19'0 0.0
2018-Jun-16 13:00N 30°06' W 093°19'0 0.0
2018-Jun-16 12:30N 30°06' W 093°19'0 0.1
2018-Jun-16 12:00N 30°06' W 093°19'0 0.1
2018-Jun-16 11:31N 30°06' W 093°19'0 0.0
2018-Jun-16 11:01N 30°06' W 093°19'0 0.0
2018-Jun-16 10:31N 30°06' W 093°19'0 0.0
2018-Jun-16 10:00N 30°06' W 093°19'0 0.0
2018-Jun-16 09:29N 30°06' W 093°19'0 0.1
2018-Jun-16 09:00N 30°06' W 093°19'0 0.0
2018-Jun-16 08:30N 30°06' W 093°19'0 0.0
2018-Jun-16 08:00N 30°06' W 093°19'0 0.5
2018-Jun-16 07:30N 30°06' W 093°19'1 2.8
2018-Jun-16 07:00N 30°05' W 093°20'2 3.3
2018-Jun-16 06:30N 30°04' W 093°21'1 2.2
2018-Jun-16 06:00N 30°04' W 093°23'0 0.7
2018-Jun-16 05:30N 30°04' W 093°23'0 0.1
2018-Jun-16 05:00N 30°04' W 093°23'0 0.0
2018-Jun-16 04:30N 30°04' W 093°23'0 0.0
2018-Jun-16 04:00N 30°04' W 093°23'0 0.0
2018-Jun-16 03:30N 30°04' W 093°23'0 0.0
2018-Jun-16 03:00N 30°04' W 093°23'0 0.0
2018-Jun-16 02:30N 30°04' W 093°23'0 0.0
2018-Jun-16 02:01N 30°04' W 093°23'0 0.1
2018-Jun-16 01:30N 30°04' W 093°23'1 2.4
2018-Jun-16 01:00N 30°04' W 093°21'0 0.4
2018-Jun-16 00:29N 30°04' W 093°21'1 2.5
2018-Jun-16 00:00N 30°04' W 093°23'0 0.5
2018-Jun-15 23:29N 30°04' W 093°23'0 0.0
2018-Jun-15 23:00N 30°04' W 093°23'0 0.0
2018-Jun-15 22:30N 30°04' W 093°23'0 0.0
2018-Jun-15 22:00N 30°04' W 093°23'0 0.0
2018-Jun-15 21:31N 30°04' W 093°23'0 0.0
2018-Jun-15 21:00N 30°04' W 093°23'0 0.0
2018-Jun-15 20:30N 30°04' W 093°23'0 0.0
2018-Jun-15 20:00N 30°04' W 093°23'0 0.0
2018-Jun-15 19:30N 30°04' W 093°23'0 0.0
2018-Jun-15 19:00N 30°04' W 093°23'0 0.0
2018-Jun-15 18:30N 30°04' W 093°23'0 0.3
2018-Jun-15 18:00N 30°04' W 093°23'  
Track history (hours):
 
Tides and Currents Weather Stations Pressure Air Temp Water Temp Dewpoint Dewpoint Depression Visibility Wind Speed Wind Dir Waves Ship Positions

Lake Charles

Owner: Canal Barge Company, Inc., Belle Chasse, LA. More information available from US FCC via Universal Licensing System and Coast Guard Vessel Documentation Center.

Last reported at 2018-Jun-25 17:30 UTC. Time now 2018-Jun-25 17:50 UTC.
Position N 29°47' W 092°13'.

Length 23 m; draft 3 m.

Type: Tow > 200 m length. MMSI: 367456860.

Date/timePositionNaut miles runAvg speedWind from/ knotsBaromVisibWave heightAir tempDewpointWater temp
2018-Jun-25 17:30N 29°47' W 092°13'0 0.9
2018-Jun-25 17:00N 29°47' W 092°12'1 1.3
2018-Jun-25 16:30N 29°47' W 092°12'0 0.1
2018-Jun-25 16:00N 29°47' W 092°12'0 0.0
2018-Jun-25 15:30N 29°47' W 092°12'0 0.0
2018-Jun-25 15:00N 29°47' W 092°12'0 0.0
2018-Jun-25 14:30N 29°47' W 092°12'0 0.0
2018-Jun-25 14:00N 29°47' W 092°12'0 0.0
2018-Jun-25 13:30N 29°47' W 092°12'0 0.0
2018-Jun-25 13:00N 29°47' W 092°12'0 0.0
2018-Jun-25 12:30N 29°47' W 092°12'0 0.0
2018-Jun-25 12:00N 29°47' W 092°12'0 0.0
2018-Jun-25 11:30N 29°47' W 092°12'0 0.0
2018-Jun-25 11:00N 29°47' W 092°12'0 0.1
2018-Jun-25 10:29N 29°47' W 092°12'0 0.1
2018-Jun-25 10:01N 29°47' W 092°12'0 0.0
2018-Jun-25 09:29N 29°47' W 092°12'0 0.0
2018-Jun-25 09:00N 29°47' W 092°12'0 0.0
2018-Jun-25 08:30N 29°47' W 092°12'0 0.0
2018-Jun-25 08:00N 29°47' W 092°12'0 0.0
2018-Jun-25 07:30N 29°47' W 092°12'0 0.0
2018-Jun-25 06:59N 29°47' W 092°12'1 1.4
2018-Jun-25 06:30N 29°47' W 092°11'2 3.4
2018-Jun-25 06:00N 29°47' W 092°09'2 3.9
2018-Jun-25 05:30N 29°48' W 092°07'2 3.6
2018-Jun-25 05:00N 29°48' W 092°05'2 3.7
2018-Jun-25 04:31N 29°49' W 092°03'2 4.2
2018-Jun-25 04:00N 29°50' W 092°00'2 4.2
2018-Jun-25 03:30N 29°50' W 091°58'  
2018-Jun-21 16:09N 29°51' W 091°55'1 4.1
2018-Jun-21 16:00N 29°51' W 091°55'2 4.0
2018-Jun-21 15:30N 29°50' W 091°58'2 3.9
2018-Jun-21 15:00N 29°50' W 091°60'2 4.0
2018-Jun-21 14:30N 29°49' W 092°02'2 3.6
2018-Jun-21 14:01N 29°49' W 092°04'2 3.4
2018-Jun-21 13:30N 29°48' W 092°06'2 3.3
2018-Jun-21 13:00N 29°47' W 092°07'2 3.5
2018-Jun-21 12:30N 29°47' W 092°09'2 3.3
2018-Jun-21 12:00N 29°47' W 092°11'1 2.1
2018-Jun-21 11:30N 29°47' W 092°12'1 1.3
2018-Jun-21 11:00N 29°47' W 092°13'1 1.6
2018-Jun-21 10:30N 29°48' W 092°14'0 0.2
2018-Jun-21 10:00N 29°48' W 092°14'0 0.9
2018-Jun-21 09:30N 29°48' W 092°14'1 1.3
2018-Jun-21 09:01N 29°48' W 092°15'0 0.2
2018-Jun-21 08:30N 29°48' W 092°15'0 0.6
2018-Jun-21 08:00N 29°48' W 092°16'0 0.3
2018-Jun-21 07:30N 29°48' W 092°16'0 0.1
2018-Jun-21 07:00N 29°48' W 092°16'0 0.1
2018-Jun-21 06:30N 29°48' W 092°16'0 0.0
2018-Jun-21 06:00N 29°48' W 092°16'0 0.0
2018-Jun-21 05:30N 29°48' W 092°16'0 0.2
2018-Jun-21 05:00N 29°49' W 092°16'0 0.3
2018-Jun-21 04:30N 29°49' W 092°16'0 0.0
2018-Jun-21 04:00N 29°49' W 092°16'0 0.0
2018-Jun-21 03:30N 29°49' W 092°16'1 2.0
2018-Jun-21 03:00N 29°49' W 092°17'2 3.4
2018-Jun-21 02:30N 29°50' W 092°18'2 3.5
2018-Jun-21 02:00N 29°51' W 092°20'36 3.3
2018-Jun-20 15:10N 29°56' W 093°02'0 0.4
2018-Jun-20 14:42N 29°56' W 093°02'0 0.0
2018-Jun-20 14:24N 29°56' W 093°02'0 0.0
2018-Jun-20 13:51N 29°56' W 093°02'0 0.0
2018-Jun-20 13:18N 29°56' W 093°02'30 3.0
2018-Jun-20 03:18N 29°54' W 092°28'1 3.9
2018-Jun-20 03:00N 29°53' W 092°26'2 3.9
2018-Jun-20 02:30N 29°53' W 092°24'3 3.5
2018-Jun-20 01:38N 29°51' W 092°22'0 3.3
2018-Jun-20 01:30N 29°51' W 092°21'2 3.7
2018-Jun-20 01:00N 29°50' W 092°19'2 3.2
2018-Jun-20 00:30N 29°50' W 092°18'2 3.3
2018-Jun-20 00:00N 29°49' W 092°16'2 3.3
2018-Jun-19 23:30N 29°48' W 092°14'2 3.4
2018-Jun-19 23:00N 29°47' W 092°13'0 0.9
2018-Jun-19 22:30N 29°47' W 092°12'1 1.1
2018-Jun-19 22:00N 29°47' W 092°12'0 0.0
2018-Jun-19 21:30N 29°47' W 092°12'0 0.0
2018-Jun-19 21:01N 29°47' W 092°12'0 0.0
2018-Jun-19 20:30N 29°47' W 092°12'0 0.0
2018-Jun-19 20:00N 29°47' W 092°12'0 0.1
2018-Jun-19 19:30N 29°47' W 092°11'0 0.3
2018-Jun-19 18:59N 29°47' W 092°11'0 0.1
2018-Jun-19 18:30N 29°47' W 092°11'0 0.1
2018-Jun-19 18:00N 29°47' W 092°11'0 0.2
2018-Jun-19 17:30N 29°47' W 092°11'0 0.1
2018-Jun-19 17:00N 29°47' W 092°11'0 0.1
2018-Jun-19 16:30N 29°47' W 092°11'0 0.0
2018-Jun-19 16:00N 29°47' W 092°11'0 0.0
2018-Jun-19 15:31N 29°47' W 092°11'0 0.2
2018-Jun-19 15:00N 29°47' W 092°11'2 3.1
2018-Jun-19 14:30N 29°47' W 092°09'1 2.6
2018-Jun-19 14:00N 29°47' W 092°08'0 0.0
2018-Jun-19 13:30N 29°47' W 092°08'0 0.0
2018-Jun-19 13:00N 29°47' W 092°08'0 0.0
2018-Jun-19 12:30N 29°47' W 092°08'0 0.0
2018-Jun-19 12:00N 29°47' W 092°08'0 0.0
2018-Jun-19 11:30N 29°47' W 092°08'0 0.0
2018-Jun-19 11:00N 29°47' W 092°08'0 0.1
2018-Jun-19 10:30N 29°47' W 092°08'1 1.3
2018-Jun-19 10:00N 29°47' W 092°07'2 3.1
2018-Jun-19 09:30N 29°48' W 092°05'2 3.7
2018-Jun-19 09:01N 29°49' W 092°03'2 3.8
2018-Jun-19 08:30N 29°49' W 092°01'2 3.6
2018-Jun-19 08:00N 29°50' W 091°59'2 3.9
2018-Jun-19 07:30N 29°50' W 091°57'7 3.3
2018-Jun-19 05:30N 29°49' W 091°50'4 0.2
2018-Jun-18 04:46N 29°51' W 091°54'1 4.8
2018-Jun-18 04:30N 29°51' W 091°56'2 4.9
2018-Jun-18 04:00N 29°50' W 091°59'3 5.0
2018-Jun-18 03:30N 29°49' W 092°01'2 4.5
2018-Jun-18 03:00N 29°48' W 092°04'2 4.8
2018-Jun-18 02:30N 29°48' W 092°06'2 4.8
2018-Jun-18 02:00N 29°47' W 092°09'2 3.4
2018-Jun-18 01:30N 29°47' W 092°11'1 2.9
2018-Jun-18 01:01N 29°47' W 092°12'1 1.5
2018-Jun-18 00:30N 29°48' W 092°13'0 0.9
2018-Jun-18 00:00N 29°48' W 092°14'0 0.0
2018-Jun-17 23:30N 29°48' W 092°14'0 0.0
2018-Jun-17 22:59N 29°48' W 092°14'0 0.1
2018-Jun-17 22:30N 29°48' W 092°14'1 2.2
2018-Jun-17 22:00N 29°48' W 092°15'0 0.6
2018-Jun-17 21:30N 29°48' W 092°15'1 1.0
2018-Jun-17 21:00N 29°48' W 092°16'0 0.1
2018-Jun-17 20:30N 29°48' W 092°16'0 0.0
2018-Jun-17 20:00N 29°48' W 092°16'0 0.0
2018-Jun-17 19:30N 29°48' W 092°16'0 0.5
2018-Jun-17 19:00N 29°49' W 092°16'0 0.6
2018-Jun-17 18:30N 29°49' W 092°16'0 0.2
2018-Jun-17 18:00N 29°49' W 092°17'1 2.7
2018-Jun-17 17:31N 29°50' W 092°18'2 3.5
2018-Jun-17 17:00N 29°50' W 092°19'2 3.6
2018-Jun-17 16:30N 29°51' W 092°22'2 3.5
2018-Jun-17 15:58N 29°52' W 092°23'32 3.7
2018-Jun-17 07:14N 29°56' W 092°60'1 3.7
2018-Jun-17 06:51N 29°56' W 093°01'1 3.7
2018-Jun-17 06:30N 29°56' W 093°03'1 2.8
2018-Jun-17 06:00N 29°56' W 093°04'2 3.4
2018-Jun-17 05:30N 29°56' W 093°06'1 1.9
2018-Jun-17 05:00N 29°56' W 093°07'2 3.5
2018-Jun-17 04:31N 29°56' W 093°09'2 3.5
2018-Jun-17 04:00N 29°57' W 093°11'2 3.2
2018-Jun-17 03:30N 29°59' W 093°12'1 2.9
2018-Jun-17 03:00N 29°60' W 093°13'2 3.4
2018-Jun-17 02:30N 30°01' W 093°14'1 2.9
2018-Jun-17 02:00N 30°02' W 093°15'2 3.2
2018-Jun-17 01:30N 30°04' W 093°16'2 3.2
2018-Jun-17 01:00N 30°05' W 093°17'1 1.5
2018-Jun-17 00:31N 30°05' W 093°18'1 2.1
2018-Jun-17 00:01N 30°06' W 093°19'0 0.4
2018-Jun-16 23:30N 30°06' W 093°19'0 0.1
2018-Jun-16 23:00N 30°06' W 093°19'0 0.1
2018-Jun-16 22:31N 30°06' W 093°19'0 0.0
2018-Jun-16 21:58N 30°06' W 093°19'0 0.0
2018-Jun-16 21:30N 30°06' W 093°19'0 0.0
2018-Jun-16 21:00N 30°06' W 093°19'0 0.0
2018-Jun-16 20:30N 30°06' W 093°19'0 0.0
2018-Jun-16 19:59N 30°06' W 093°19'0 0.0
2018-Jun-16 19:31N 30°06' W 093°19'0 0.0
2018-Jun-16 19:00N 30°06' W 093°19'0 0.0
2018-Jun-16 18:30N 30°06' W 093°19'0 0.0
2018-Jun-16 18:00N 30°06' W 093°19'0 0.0
2018-Jun-16 17:28N 30°06' W 093°19'0 0.0
2018-Jun-16 17:01N 30°06' W 093°19'0 0.1
2018-Jun-16 16:31N 30°06' W 093°19'0 0.1
2018-Jun-16 16:00N 30°06' W 093°19'0 0.1
2018-Jun-16 15:28N 30°06' W 093°19'0 0.0
2018-Jun-16 15:00N 30°06' W 093°19'0 0.1
2018-Jun-16 14:30N 30°06' W 093°19'0 0.0
2018-Jun-16 13:59N 30°06' W 093°19'0 0.1
2018-Jun-16 13:30N 30°06' W 093°19'0 0.0
2018-Jun-16 13:00N 30°06' W 093°19'0 0.0
2018-Jun-16 12:30N 30°06' W 093°19'0 0.1
2018-Jun-16 12:00N 30°06' W 093°19'0 0.1
2018-Jun-16 11:31N 30°06' W 093°19'0 0.0
2018-Jun-16 11:01N 30°06' W 093°19'0 0.0
2018-Jun-16 10:31N 30°06' W 093°19'0 0.0
2018-Jun-16 10:00N 30°06' W 093°19'0 0.0
2018-Jun-16 09:29N 30°06' W 093°19'0 0.1
2018-Jun-16 09:00N 30°06' W 093°19'0 0.0
2018-Jun-16 08:30N 30°06' W 093°19'0 0.0
2018-Jun-16 08:00N 30°06' W 093°19'0 0.5
2018-Jun-16 07:30N 30°06' W 093°19'1 2.8
2018-Jun-16 07:00N 30°05' W 093°20'2 3.3
2018-Jun-16 06:30N 30°04' W 093°21'1 2.2
2018-Jun-16 06:00N 30°04' W 093°23'0 0.7
2018-Jun-16 05:30N 30°04' W 093°23'0 0.1
2018-Jun-16 05:00N 30°04' W 093°23'0 0.0
2018-Jun-16 04:30N 30°04' W 093°23'0 0.0
2018-Jun-16 04:00N 30°04' W 093°23'0 0.0
2018-Jun-16 03:30N 30°04' W 093°23'0 0.0
2018-Jun-16 03:00N 30°04' W 093°23'0 0.0
2018-Jun-16 02:30N 30°04' W 093°23'0 0.0
2018-Jun-16 02:01N 30°04' W 093°23'0 0.1
2018-Jun-16 01:30N 30°04' W 093°23'1 2.4
2018-Jun-16 01:00N 30°04' W 093°21'0 0.4
2018-Jun-16 00:29N 30°04' W 093°21'1 2.5
2018-Jun-16 00:00N 30°04' W 093°23'0 0.5
2018-Jun-15 23:29N 30°04' W 093°23'0 0.0
2018-Jun-15 23:00N 30°04' W 093°23'0 0.0
2018-Jun-15 22:30N 30°04' W 093°23'0 0.0
2018-Jun-15 22:00N 30°04' W 093°23'0 0.0
2018-Jun-15 21:31N 30°04' W 093°23'0 0.0
2018-Jun-15 21:00N 30°04' W 093°23'0 0.0
2018-Jun-15 20:30N 30°04' W 093°23'0 0.0
2018-Jun-15 20:00N 30°04' W 093°23'0 0.0
2018-Jun-15 19:30N 30°04' W 093°23'0 0.0
2018-Jun-15 19:00N 30°04' W 093°23'0 0.0
2018-Jun-15 18:30N 30°04' W 093°23'0 0.3
2018-Jun-15 18:00N 30°04' W 093°23'  

Dump ship's entire track history